Time;durP1;ratioP1;P1;durP2;ratioP2;P2;SDS_P1;SDS_P2;PMS_P1;PMS_P2;Temp;Humidity;BMP_temperature;BMP_pressure;BME280_temperature;BME280_humidity;BME280_pressure;Samples;Min_cycle;Max_cycle;Signal;HPM_P1;HPM_P2
2022/12/14 00:01:20;;;;;;;16.85;9.80;;;;;;;-3.91;100.00;100496.84;5013528;28;20136;-79
2022/12/14 00:03:46;;;;;;;21.88;9.65;;;;;;;-3.87;100.00;100511.41;5011240;28;20496;-78
2022/12/14 00:06:18;;;;;;;19.48;9.90;;;;;;;-3.91;100.00;100499.41;5013417;28;20022;-78
2022/12/14 00:08:45;;;;;;;18.08;9.27;;;;;;;-3.90;100.00;100493.47;5013750;28;20030;-78
2022/12/14 00:11:13;;;;;;;17.70;9.65;;;;;;;-3.92;99.73;100483.25;5013103;28;20036;-78
2022/12/14 00:13:38;;;;;;;16.33;9.68;;;;;;;-3.94;99.76;100479.78;5013814;28;20136;-78
2022/12/14 00:16:09;;;;;;;18.52;9.38;;;;;;;-3.95;100.00;100479.75;5013921;28;20097;-78
2022/12/14 00:18:34;;;;;;;19.50;9.68;;;;;;;-3.98;100.00;100478.00;5013135;28;20374;-78
2022/12/14 00:21:11;;;;;;;18.65;9.30;;;;;;;-4.01;100.00;100467.72;5013507;28;20136;-78
2022/12/14 00:23:38;;;;;;;18.83;9.70;;;;;;;-4.06;99.75;100464.16;5013859;28;20145;-79
2022/12/14 00:26:23;;;;;;;17.08;8.65;;;;;;;-4.05;100.00;100474.41;5011088;28;20030;-78
2022/12/14 00:28:50;;;;;;;18.77;9.30;;;;;;;-4.07;100.00;100478.56;5007657;28;20022;-78
2022/12/14 00:31:15;;;;;;;17.13;8.98;;;;;;;-4.11;99.55;100479.31;5012100;28;20113;-78
2022/12/14 00:33:41;;;;;;;18.27;8.80;;;;;;;-4.11;99.41;100471.66;5009737;28;20576;-78
2022/12/14 00:36:08;;;;;;;16.33;8.48;;;;;;;-4.12;99.55;100471.59;5011327;28;20025;-78
2022/12/14 00:38:34;;;;;;;19.33;8.52;;;;;;;-4.12;99.44;100469.94;5012080;28;20104;-78
2022/12/14 00:41:00;;;;;;;18.67;9.02;;;;;;;-4.12;100.00;100464.84;5011764;28;20461;-78
2022/12/14 00:43:25;;;;;;;17.55;8.80;;;;;;;-4.18;99.10;100451.09;5012084;28;20521;-78
2022/12/14 00:45:51;;;;;;;17.58;9.27;;;;;;;-4.15;99.44;100453.69;5010570;28;20440;-78
2022/12/14 00:48:18;;;;;;;20.35;10.00;;;;;;;-4.16;99.83;100441.78;5011653;28;20442;-78
2022/12/14 00:50:48;;;;;;;14.60;8.20;;;;;;;-4.21;100.00;100441.66;5007423;28;20026;-78
2022/12/14 00:53:13;;;;;;;17.75;8.77;;;;;;;-4.36;100.00;100429.34;5012431;28;20060;-78
2022/12/14 00:55:40;;;;;;;15.07;8.60;;;;;;;-4.34;100.00;100445.53;5013388;28;20085;-78
2022/12/14 00:58:07;;;;;;;18.05;8.65;;;;;;;-4.40;100.00;100450.41;5013153;28;20033;-78
2022/12/14 01:00:33;;;;;;;18.65;9.30;;;;;;;-4.50;99.99;100434.00;5012585;28;20033;-78
2022/12/14 01:02:59;;;;;;;17.90;9.57;;;;;;;-4.47;99.91;100446.81;5012783;28;20021;-78
2022/12/14 01:05:24;;;;;;;17.90;9.18;;;;;;;-4.49;99.65;100451.00;5013231;28;20033;-78
2022/12/14 01:07:49;;;;;;;18.20;8.93;;;;;;;-4.53;100.00;100441.53;5010419;28;20528;-78
2022/12/14 01:10:15;;;;;;;16.02;8.85;;;;;;;-4.56;99.95;100438.91;5004776;28;20481;-78
2022/12/14 01:12:40;;;;;;;17.45;9.52;;;;;;;-4.59;100.00;100441.34;5011711;28;20042;-78
2022/12/14 01:15:06;;;;;;;17.58;9.20;;;;;;;-4.66;100.00;100430.94;5009798;28;20034;-78
2022/12/14 01:17:31;;;;;;;19.52;9.13;;;;;;;-4.68;100.00;100428.34;5010944;28;20113;-78
2022/12/14 01:19:56;;;;;;;17.95;8.88;;;;;;;-4.65;100.00;100430.97;5011308;28;20030;-78
2022/12/14 01:22:22;;;;;;;15.60;8.50;;;;;;;-4.66;100.00;100424.19;5012235;28;20029;-78
2022/12/14 01:24:47;;;;;;;15.02;8.27;;;;;;;-4.66;100.00;100419.09;5012361;28;20033;-77
2022/12/14 01:27:12;;;;;;;20.48;8.93;;;;;;;-4.63;100.00;100421.72;5012915;28;20064;-78
2022/12/14 01:29:37;;;;;;;18.55;8.43;;;;;;;-4.62;100.00;100425.13;5012387;28;20037;-78
2022/12/14 01:32:03;;;;;;;19.98;8.95;;;;;;;-4.62;100.00;100420.91;5012529;28;20080;-78
2022/12/14 01:34:28;;;;;;;16.20;7.93;;;;;;;-4.61;100.00;100424.31;5012555;28;20050;-78
2022/12/14 01:36:53;;;;;;;19.02;8.82;;;;;;;-4.64;100.00;100414.03;5010447;28;20026;-78
2022/12/14 01:39:19;;;;;;;16.83;9.38;;;;;;;-4.61;100.00;100417.56;5012086;28;20041;-78
2022/12/14 01:41:48;;;;;;;16.42;8.35;;;;;;;-4.65;100.00;100419.94;5006217;28;20026;-78
2022/12/14 01:44:13;;;;;;;15.50;7.97;;;;;;;-4.66;100.00;100421.63;5005136;28;20105;-78
2022/12/14 01:46:51;;;;;;;15.98;8.52;;;;;;;-4.70;100.00;100422.34;5012709;28;20157;-78
2022/12/14 01:49:44;;;;;;;17.58;8.60;;;;;;;-4.75;100.00;100434.91;5012091;28;20041;-78
2022/12/14 01:52:33;;;;;;;16.98;9.07;;;;;;;-4.79;100.00;100427.16;5012552;28;20037;-78
2022/12/14 01:55:15;;;;;;;18.70;8.90;;;;;;;-4.82;100.00;100420.28;5012614;28;20018;-78
2022/12/14 01:58:15;;;;;;;14.50;7.85;;;;;;;-4.80;100.00;100421.19;5011698;28;20188;-78
2022/12/14 02:00:42;;;;;;;16.92;8.80;;;;;;;-4.92;100.00;100415.72;5012433;28;20025;-78
2022/12/14 02:03:16;;;;;;;15.35;9.07;;;;;;;-4.86;100.00;100415.06;5011857;28;20025;-78
2022/12/14 02:05:46;;;;;;;17.50;8.55;;;;;;;-4.83;100.00;100407.53;5012259;28;20033;-78
2022/12/14 02:08:13;;;;;;;17.20;9.02;;;;;;;-4.80;100.00;100400.84;4999008;28;20033;-78
2022/12/14 02:10:39;;;;;;;18.63;8.10;;;;;;;-4.79;100.00;100400.03;5011797;28;20064;-78
2022/12/14 02:13:13;;;;;;;17.30;9.60;;;;;;;-4.78;100.00;100396.66;5011977;28;20025;-78
2022/12/14 02:15:40;;;;;;;16.85;8.25;;;;;;;-4.79;100.00;100391.53;5012717;28;20404;-78
2022/12/14 02:18:09;;;;;;;16.67;8.57;;;;;;;-4.80;100.00;100389.81;5011469;28;20079;-78
2022/12/14 02:20:46;;;;;;;16.02;8.23;;;;;;;-4.80;100.00;100382.19;5000783;28;20034;-78
2022/12/14 02:23:36;;;;;;;19.10;8.45;;;;;;;-4.77;99.84;100395.88;5011551;28;20469;-78
2022/12/14 02:26:20;;;;;;;16.48;8.30;;;;;;;-4.77;100.00;100389.94;5013644;28;20038;-78
2022/12/14 02:28:57;;;;;;;17.95;8.65;;;;;;;-4.76;100.00;100389.09;5015624;28;20030;-78
2022/12/14 02:31:38;;;;;;;15.20;8.40;;;;;;;-4.76;99.95;100392.50;5012673;28;20052;-78
2022/12/14 02:34:38;;;;;;;15.32;8.25;;;;;;;-4.79;100.00;100381.38;5011366;28;20092;-78
2022/12/14 02:37:15;;;;;;;18.05;8.20;;;;;;;-4.83;99.77;100370.25;5013300;28;20040;-78
2022/12/14 02:39:50;;;;;;;15.30;8.57;;;;;;;-4.77;100.00;100383.16;5013435;28;20505;-78
2022/12/14 02:42:29;;;;;;;17.35;8.65;;;;;;;-4.79;100.00;100373.75;5013988;28;20034;-78
2022/12/14 02:45:07;;;;;;;15.05;7.07;;;;;;;-4.86;100.00;100375.22;5014024;28;20050;-78
2022/12/14 02:47:53;;;;;;;16.17;8.32;;;;;;;-4.83;100.00;100384.66;5002522;28;20018;-78
2022/12/14 02:50:42;;;;;;;16.70;8.48;;;;;;;-4.83;99.87;100375.34;5015616;28;20030;-78
2022/12/14 02:53:21;;;;;;;16.80;8.13;;;;;;;-4.79;100.00;100382.22;5015081;28;20161;-78
2022/12/14 02:55:50;;;;;;;15.73;8.60;;;;;;;-4.77;100.00;100383.16;5015090;28;20414;-78
2022/12/14 02:58:28;;;;;;;16.38;7.93;;;;;;;-4.80;100.00;100364.41;5015473;28;20029;-78
2022/12/14 03:00:56;;;;;;;13.05;7.88;;;;;;;-4.71;99.61;100379.91;5014033;28;20036;-78
2022/12/14 03:03:22;;;;;;;15.15;7.78;;;;;;;-4.76;99.94;100363.66;5015168;28;20029;-78
2022/12/14 03:06:02;;;;;;;13.45;7.90;;;;;;;-4.63;99.90;100383.56;5014604;28;20030;-78
2022/12/14 03:08:33;;;;;;;18.05;8.63;;;;;;;-4.73;100.00;100361.22;5014902;28;20022;-78
2022/12/14 03:11:04;;;;;;;16.48;8.52;;;;;;;-4.60;100.00;100378.56;5015061;28;20022;-78
2022/12/14 03:13:48;;;;;;;16.77;7.70;;;;;;;-4.57;100.00;100378.66;5014616;28;20305;-78
2022/12/14 03:16:23;;;;;;;14.48;7.85;;;;;;;-4.53;99.95;100372.84;5015064;28;20076;-78
2022/12/14 03:18:55;;;;;;;15.48;7.70;;;;;;;-4.53;100.00;100359.28;5014577;28;20073;-78
2022/12/14 03:21:27;;;;;;;14.52;7.78;;;;;;;-4.47;99.41;100364.53;5014694;28;20085;-78
2022/12/14 03:23:55;;;;;;;17.15;8.38;;;;;;;-4.51;99.80;100345.78;5006626;28;20026;-78
2022/12/14 03:26:26;;;;;;;14.27;8.07;;;;;;;-4.46;100.00;100356.09;5013270;28;20485;-78
2022/12/14 03:29:17;;;;;;;17.27;8.68;;;;;;;-4.47;99.94;100350.13;5011091;28;20362;-78
2022/12/14 03:31:55;;;;;;;16.50;8.68;;;;;;;-4.50;100.00;100333.91;5010785;28;20066;-78
2022/12/14 03:34:28;;;;;;;15.32;7.97;;;;;;;-4.47;99.88;100326.38;5012852;28;20050;-78
2022/12/14 03:37:10;;;;;;;13.52;8.20;;;;;;;-4.44;99.46;100318.84;5003679;28;20030;-78
2022/12/14 03:39:37;;;;;;;15.63;8.15;;;;;;;-4.44;99.22;100320.53;5014277;28;20038;-78
2022/12/14 03:42:14;;;;;;;16.25;7.88;;;;;;;-4.40;99.92;100327.41;5006475;28;20046;-78
2022/12/14 03:44:58;;;;;;;13.48;7.03;;;;;;;-4.39;99.50;100322.34;5014075;28;20030;-78
2022/12/14 03:47:35;;;;;;;13.88;7.50;;;;;;;-4.39;99.16;100329.13;5012877;28;20045;-78
2022/12/14 03:50:07;;;;;;;14.20;7.93;;;;;;;-4.38;98.81;100335.94;5012784;28;20504;-78
2022/12/14 03:52:54;;;;;;;17.48;8.48;;;;;;;-4.49;98.39;100310.19;5005081;28;20026;-78
2022/12/14 03:55:25;;;;;;;13.90;7.65;;;;;;;-4.38;99.18;100319.00;5013224;28;20026;-78
2022/12/14 03:58:03;;;;;;;14.57;7.57;;;;;;;-4.41;99.00;100313.84;5011933;28;20037;-78
2022/12/14 04:00:35;;;;;;;13.35;7.50;;;;;;;-4.44;99.34;100303.56;5012760;28;20026;-78
2022/12/14 04:03:14;;;;;;;17.88;8.85;;;;;;;-4.39;99.93;100307.09;5005246;28;20085;-78
2022/12/14 04:06:11;;;;;;;17.60;8.10;;;;;;;-4.36;99.31;100308.88;5008485;28;20026;-78
2022/12/14 04:08:43;;;;;;;17.23;7.97;;;;;;;-4.38;99.93;100311.38;5013174;28;20096;-78
2022/12/14 04:19:53;;;;;;;16.70;8.15;;;;;;;-4.38;99.72;100293.56;5013499;28;20080;-78
2022/12/14 04:22:25;;;;;;;14.80;8.15;;;;;;;-4.38;99.85;100287.59;5013210;28;20041;-78
2022/12/14 04:27:51;;;;;;;16.33;8.02;;;;;;;-4.39;99.13;100290.97;5013193;28;20045;-78
2022/12/14 04:30:17;;;;;;;16.80;8.75;;;;;;;-4.40;99.57;100284.16;5012425;28;20052;-78
2022/12/14 04:32:58;;;;;;;12.82;7.50;;;;;;;-4.39;99.22;100284.19;5011659;28;20025;-78
2022/12/14 04:35:40;;;;;;;16.98;8.88;;;;;;;-4.44;99.55;100273.03;5006185;28;20113;-78
2022/12/14 04:38:13;;;;;;;16.10;8.20;;;;;;;-4.47;99.20;100271.25;5012506;28;20061;-78
2022/12/14 04:40:44;;;;;;;15.25;7.97;;;;;;;-4.41;98.92;100277.34;5013335;28;20041;-78
2022/12/14 04:43:16;;;;;;;15.95;7.72;;;;;;;-4.49;99.13;100265.25;5013466;28;20022;-78
2022/12/14 04:46:06;;;;;;;15.98;8.68;;;;;;;-4.43;99.58;100268.81;5012471;28;20049;-77
2022/12/14 04:48:40;;;;;;;17.23;8.55;;;;;;;-4.47;99.26;100258.53;5005926;28;20117;-78
2022/12/14 04:51:08;;;;;;;18.73;8.48;;;;;;;-4.47;99.29;100263.63;5013511;28;20060;-78
2022/12/14 04:53:36;;;;;;;16.90;7.55;;;;;;;-4.53;99.37;100253.28;5012552;28;20057;-78
2022/12/14 04:56:11;;;;;;;15.48;8.48;;;;;;;-4.45;99.08;100263.66;5012883;28;20060;-78
2022/12/14 04:58:38;;;;;;;14.00;7.85;;;;;;;-4.56;99.22;100237.94;5013158;28;20426;-78
2022/12/14 05:01:35;;;;;;;16.10;8.85;;;;;;;-4.43;99.23;100262.03;5012363;28;20117;-78
2022/12/14 05:04:14;;;;;;;18.52;9.05;;;;;;;-4.44;99.81;100256.91;5012576;28;20859;-78
2022/12/14 05:07:01;;;;;;;17.95;8.48;;;;;;;-4.41;99.32;100262.94;5012508;28;20025;-78
2022/12/14 05:09:38;;;;;;;17.00;8.65;;;;;;;-4.40;99.92;100268.88;5013049;28;20046;-78
2022/12/14 05:12:15;;;;;;;18.40;8.90;;;;;;;-4.39;100.00;100260.44;5012884;28;20025;-78
2022/12/14 05:15:08;;;;;;;16.63;8.75;;;;;;;-4.40;100.00;100261.25;5012265;28;20079;-78
2022/12/14 05:17:36;;;;;;;15.52;7.85;;;;;;;-4.44;99.53;100251.81;5013015;28;20014;-79
2022/12/14 05:20:01;;;;;;;16.77;8.80;;;;;;;-4.49;98.94;100250.00;5011992;28;20029;-78
2022/12/14 05:22:27;;;;;;;17.35;8.00;;;;;;;-4.50;99.73;100238.09;5013230;28;20374;-79
2022/12/14 05:24:52;;;;;;;14.38;7.82;;;;;;;-4.47;99.30;100243.28;5012585;28;20021;-78
2022/12/14 05:27:17;;;;;;;17.85;9.25;;;;;;;-4.48;99.94;100246.66;5012070;28;20026;-78
2022/12/14 05:29:42;;;;;;;16.90;8.95;;;;;;;-4.50;99.45;100245.72;5012585;28;20025;-78
2022/12/14 05:32:11;;;;;;;16.88;9.27;;;;;;;-4.51;100.00;100236.38;5012931;28;20168;-78
2022/12/14 05:34:37;;;;;;;18.60;8.50;;;;;;;-4.55;100.00;100234.56;5010711;28;20046;-78
2022/12/14 05:37:02;;;;;;;16.27;8.52;;;;;;;-4.54;100.00;100241.38;5006997;28;20373;-78
2022/12/14 05:39:28;;;;;;;16.30;8.43;;;;;;;-4.57;99.89;100236.22;5010547;28;20030;-78
2022/12/14 05:41:53;;;;;;;16.83;8.50;;;;;;;-4.56;100.00;100232.84;5011724;28;20056;-78
2022/12/14 05:44:19;;;;;;;14.40;8.02;;;;;;;-4.54;100.00;100226.13;5011953;28;20022;-78
2022/12/14 05:46:44;;;;;;;16.15;8.57;;;;;;;-4.59;100.00;100221.72;5005850;28;20031;-79
2022/12/14 05:49:10;;;;;;;15.25;8.35;;;;;;;-4.60;100.00;100220.00;5011018;28;20540;-78
2022/12/14 05:51:35;;;;;;;16.42;9.25;;;;;;;-4.58;100.00;100220.88;5011482;28;20034;-78
2022/12/14 05:54:00;;;;;;;14.07;7.78;;;;;;;-4.48;100.00;100238.13;5011194;28;20057;-78
2022/12/14 05:56:26;;;;;;;15.75;8.57;;;;;;;-4.47;100.00;100239.88;5011957;28;20108;-78
2022/12/14 05:58:51;;;;;;;17.42;8.52;;;;;;;-4.47;100.00;100238.19;5013624;28;20038;-78
2022/12/14 06:01:17;;;;;;;19.10;8.68;;;;;;;-4.47;100.00;100240.72;5016877;28;20029;-78
2022/12/14 06:03:42;;;;;;;14.75;8.02;;;;;;;-4.47;100.00;100234.78;5015409;28;20052;-78
2022/12/14 06:06:10;;;;;;;16.98;8.32;;;;;;;-4.45;100.00;100235.66;5016454;28;20022;-78
2022/12/14 06:08:37;;;;;;;15.43;8.15;;;;;;;-4.45;100.00;100229.72;5016317;28;20026;-78
2022/12/14 06:11:08;;;;;;;14.65;8.07;;;;;;;-4.50;100.00;100217.75;5015189;28;20022;-78
2022/12/14 06:13:35;;;;;;;14.45;7.75;;;;;;;-4.45;100.00;100217.00;5016648;28;20105;-78
2022/12/14 06:16:15;;;;;;;17.70;8.38;;;;;;;-4.55;100.00;100201.47;5015756;28;20081;-78
2022/12/14 06:18:42;;;;;;;16.90;8.13;;;;;;;-4.45;100.00;100214.44;5016046;28;20030;-78
2022/12/14 06:21:07;;;;;;;19.15;8.23;;;;;;;-4.42;100.00;100212.84;5016203;28;20034;-78
2022/12/14 06:23:33;;;;;;;16.35;8.38;;;;;;;-4.42;100.00;100220.47;5015546;28;20049;-78
2022/12/14 06:25:58;;;;;;;15.13;8.10;;;;;;;-4.40;100.00;100228.19;5015576;28;20491;-78
2022/12/14 06:28:23;;;;;;;16.75;7.85;;;;;;;-4.46;100.00;100213.59;5016066;28;20475;-78
2022/12/14 06:30:49;;;;;;;14.52;7.53;;;;;;;-4.45;100.00;100212.78;5014969;28;20018;-79
2022/12/14 06:33:14;;;;;;;15.23;7.70;;;;;;;-4.39;100.00;100223.13;5015705;28;20416;-78
2022/12/14 06:35:45;;;;;;;16.73;8.18;;;;;;;-4.38;100.00;100226.50;5017254;28;20105;-78
2022/12/14 06:38:12;;;;;;;17.38;8.32;;;;;;;-4.38;100.00;100226.50;5014977;28;20110;-78
2022/12/14 06:40:38;;;;;;;20.92;9.88;;;;;;;-4.43;100.00;100212.81;5015184;28;20040;-78
2022/12/14 06:43:03;;;;;;;14.02;8.00;;;;;;;-4.43;100.00;100216.22;5015385;28;20025;-78
2022/12/14 06:45:29;;;;;;;18.08;7.88;;;;;;;-4.38;100.00;100224.84;5015044;28;20465;-78
2022/12/14 06:47:54;;;;;;;14.68;8.40;;;;;;;-4.48;100.00;100210.13;5015530;28;20030;-78
2022/12/14 06:50:19;;;;;;;17.52;8.88;;;;;;;-4.38;100.00;100235.03;5015654;28;20477;-78
2022/12/14 06:52:48;;;;;;;16.42;8.57;;;;;;;-4.44;100.00;100216.19;5014722;28;20022;-78
2022/12/14 06:55:14;;;;;;;16.23;9.32;;;;;;;-4.48;100.00;100221.22;5015594;28;20022;-77
2022/12/14 06:57:39;;;;;;;16.85;9.23;;;;;;;-4.36;100.00;100235.06;5015084;28;20492;-78
2022/12/14 07:00:05;;;;;;;19.15;9.77;;;;;;;-4.39;100.00;100233.28;5013939;28;20022;-78
2022/12/14 07:02:31;;;;;;;21.38;9.05;;;;;;;-4.39;100.00;100225.66;5010978;28;20026;-78
2022/12/14 07:04:56;;;;;;;14.93;9.35;;;;;;;-4.46;100.00;100211.06;5014948;28;20021;-78
2022/12/14 07:07:21;;;;;;;19.08;9.02;;;;;;;-4.37;100.00;100243.53;5012522;28;20034;-78
2022/12/14 07:09:47;;;;;;;18.00;9.50;;;;;;;-4.43;100.00;100228.09;5012395;28;20091;-78
2022/12/14 07:12:12;;;;;;;14.88;8.25;;;;;;;-4.40;100.00;100246.84;5011008;28;20061;-78
2022/12/14 07:14:38;;;;;;;20.45;9.68;;;;;;;-4.40;100.00;100240.91;5014270;28;20022;-78
2022/12/14 07:17:03;;;;;;;20.98;10.05;;;;;;;-4.40;100.00;100239.22;5014840;28;20014;-78
2022/12/14 07:19:28;;;;;;;21.48;9.77;;;;;;;-4.44;100.00;100228.91;5014168;28;20026;-78
2022/12/14 07:21:54;;;;;;;16.40;9.63;;;;;;;-4.42;100.00;100240.84;5014993;28;20046;-78
2022/12/14 07:24:19;;;;;;;19.17;9.40;;;;;;;-4.52;100.00;100232.09;5015148;28;20013;-78
2022/12/14 07:26:44;;;;;;;17.27;9.50;;;;;;;-4.48;100.00;100241.56;5014187;28;20034;-78
2022/12/14 07:29:10;;;;;;;18.10;9.90;;;;;;;-4.54;100.00;100236.28;5010874;28;20065;-78
2022/12/14 07:31:36;;;;;;;25.13;11.00;;;;;;;-4.54;100.00;100246.47;5014066;28;20072;-78
2022/12/14 07:34:02;;;;;;;23.88;11.10;;;;;;;-4.59;100.00;100245.47;5013005;28;20370;-78
2022/12/14 07:36:29;;;;;;;21.58;11.38;;;;;;;-4.61;100.00;100249.66;5014680;28;20026;-77
2022/12/14 07:38:55;;;;;;;21.95;11.07;;;;;;;-4.69;100.00;100253.66;5013608;28;20547;-77
2022/12/14 07:41:23;;;;;;;23.70;11.38;;;;;;;-4.74;100.00;100248.47;5010318;28;20034;-76
2022/12/14 07:43:50;;;;;;;25.75;12.20;;;;;;;-4.85;100.00;100232.00;5013400;28;20022;-77
2022/12/14 07:46:18;;;;;;;22.90;12.30;;;;;;;-4.83;100.00;100248.19;5014043;28;20385;-77
2022/12/14 07:48:45;;;;;;;30.48;16.05;;;;;;;-4.86;100.00;100247.25;5010748;28;20040;-77
2022/12/14 07:51:14;;;;;;;29.75;14.57;;;;;;;-4.92;100.00;100253.00;5011491;28;20026;-77
2022/12/14 07:53:40;;;;;;;25.05;13.45;;;;;;;-4.99;100.00;100253.63;5014592;28;20080;-77
2022/12/14 07:56:17;;;;;;;31.27;14.20;;;;;;;-5.05;100.00;100256.84;5013408;28;20018;-76
2022/12/14 07:58:43;;;;;;;27.60;15.20;;;;;;;-5.15;100.00;100241.28;5014142;28;20121;-77
2022/12/14 08:01:10;;;;;;;30.33;14.27;;;;;;;-5.15;100.00;100252.31;5012912;28;20432;-77
2022/12/14 08:03:35;;;;;;;32.53;15.02;;;;;;;-5.23;100.00;100241.94;5010832;28;20125;-77
2022/12/14 08:06:09;;;;;;;27.63;13.93;;;;;;;-5.17;100.00;100256.47;5013562;28;20148;-77
2022/12/14 08:08:34;;;;;;;25.92;11.85;;;;;;;-5.21;100.00;100249.59;5013721;28;20385;-77
2022/12/14 08:11:00;;;;;;;25.08;11.40;;;;;;;-5.23;100.00;100251.22;5012969;28;20028;-77
2022/12/14 08:13:25;;;;;;;24.40;11.95;;;;;;;-5.20;100.00;100254.72;5012658;28;20105;-77
2022/12/14 08:15:51;;;;;;;25.58;13.35;;;;;;;-5.20;100.00;100251.28;5013092;28;20116;-77
2022/12/14 08:18:16;;;;;;;24.10;12.20;;;;;;;-5.14;100.00;100261.66;5014231;28;20040;-77
2022/12/14 08:20:41;;;;;;;24.77;12.35;;;;;;;-5.11;100.00;100266.84;5013320;28;20077;-76
2022/12/14 08:23:07;;;;;;;24.38;12.40;;;;;;;-5.11;100.00;100277.00;5009202;28;20029;-78
2022/12/14 08:25:32;;;;;;;24.35;11.80;;;;;;;-5.19;100.00;100265.75;5013271;28;20421;-77
2022/12/14 08:27:58;;;;;;;24.25;11.68;;;;;;;-5.14;100.00;100273.50;5007104;28;20025;-78
2022/12/14 08:30:23;;;;;;;23.65;11.68;;;;;;;-5.15;100.00;100275.19;5013219;28;20041;-77
2022/12/14 08:32:48;;;;;;;21.17;11.40;;;;;;;-5.16;100.00;100273.47;5010130;28;20025;-81
2022/12/14 08:35:14;;;;;;;27.15;13.35;;;;;;;-5.18;100.00;100272.53;5013471;28;20041;-77
2022/12/14 08:37:39;;;;;;;21.80;10.77;;;;;;;-5.27;100.00;100262.94;5013375;28;20101;-77
2022/12/14 08:40:05;;;;;;;25.65;11.50;;;;;;;-5.28;100.00;100265.47;5012145;28;20083;-77
2022/12/14 08:42:30;;;;;;;21.27;11.43;;;;;;;-5.31;100.00;100268.75;5013142;28;20448;-77
2022/12/14 08:44:56;;;;;;;23.98;12.02;;;;;;;-5.32;100.00;100273.81;5010084;28;20109;-77
2022/12/14 08:47:21;;;;;;;21.05;11.25;;;;;;;-5.39;100.00;100272.75;5013545;28;20100;-77
2022/12/14 08:49:46;;;;;;;24.85;12.25;;;;;;;-5.34;100.00;100290.69;5013406;28;20461;-77
2022/12/14 08:52:12;;;;;;;28.75;12.57;;;;;;;-5.43;100.00;100281.06;5009707;28;20036;-77
2022/12/14 08:54:37;;;;;;;25.80;13.02;;;;;;;-5.44;100.00;100271.72;5007747;28;20033;-77
2022/12/14 08:57:03;;;;;;;28.58;13.43;;;;;;;-5.41;100.00;100289.63;5011270;28;20497;-76
2022/12/14 08:59:28;;;;;;;23.90;13.00;;;;;;;-5.50;100.00;100274.94;5011965;28;20041;-78
2022/12/14 09:01:54;;;;;;;29.23;13.50;;;;;;;-5.46;100.00;100284.41;5011846;28;20124;-77
2022/12/14 09:04:20;;;;;;;23.48;12.80;;;;;;;-5.44;100.00;100286.97;5012303;28;20113;-77
2022/12/14 09:06:48;;;;;;;27.60;13.15;;;;;;;-5.46;100.00;100279.31;5011804;28;20429;-77
2022/12/14 09:09:15;;;;;;;26.00;13.18;;;;;;;-5.45;100.00;100285.25;5012919;28;20022;-77
2022/12/14 09:11:41;;;;;;;24.42;12.30;;;;;;;-5.45;100.00;100291.19;5012777;28;20092;-77
2022/12/14 09:14:06;;;;;;;20.27;11.43;;;;;;;-5.47;100.00;100282.66;5012293;28;20030;-77
2022/12/14 09:16:32;;;;;;;26.40;12.43;;;;;;;-5.36;100.00;100290.63;5012980;28;20385;-77
2022/12/14 09:18:57;;;;;;;23.88;12.63;;;;;;;-5.29;100.00;100296.78;5011819;28;20037;-77
2022/12/14 09:21:23;;;;;;;23.95;12.93;;;;;;;-5.24;100.00;100290.16;5012872;28;20049;-77
2022/12/14 09:23:49;;;;;;;19.92;12.05;;;;;;;-5.21;100.00;100295.31;5012335;28;20025;-77
2022/12/14 09:26:39;;;;;;;21.50;12.00;;;;;;;-5.07;100.00;100300.81;5018954;23;20029;-78
2022/12/14 09:29:04;;;;;;;22.67;11.70;;;;;;;-5.12;100.00;100275.28;5012554;28;20504;-78
2022/12/14 09:31:29;;;;;;;26.08;12.82;;;;;;;-5.06;100.00;100280.56;5009356;28;20026;-78
2022/12/14 09:33:55;;;;;;;23.05;12.30;;;;;;;-4.94;100.00;100302.94;5010034;28;20034;-78
2022/12/14 09:36:23;;;;;;;21.83;11.77;;;;;;;-5.10;100.00;100276.19;5002833;28;20520;-78
2022/12/14 09:38:49;;;;;;;26.05;12.60;;;;;;;-4.92;100.00;100303.00;5012527;28;20437;-78
2022/12/14 09:41:26;;;;;;;24.20;13.15;;;;;;;-4.91;100.00;100308.09;5011982;28;20019;-78
2022/12/14 09:43:58;;;;;;;23.83;12.35;;;;;;;-4.88;100.00;100302.25;5007502;28;20041;-78
2022/12/14 09:46:33;;;;;;;19.02;11.00;;;;;;;-4.84;100.00;100306.59;5003923;28;20160;-78
2022/12/14 09:49:00;;;;;;;27.40;12.98;;;;;;;-4.88;100.00;100285.31;5010751;28;20022;-77
2022/12/14 09:51:33;;;;;;;21.33;11.70;;;;;;;-4.77;100.00;100293.28;5012609;28;20494;-78
2022/12/14 09:54:05;;;;;;;23.50;11.38;;;;;;;-4.89;100.00;100268.34;5012185;28;20033;-78
2022/12/14 09:56:32;;;;;;;20.15;10.13;;;;;;;-4.76;100.00;100295.84;5006526;28;20015;-77
2022/12/14 09:58:59;;;;;;;24.45;12.40;;;;;;;-4.74;100.00;100293.38;4998556;28;20031;-77
2022/12/14 10:01:44;;;;;;;20.77;11.45;;;;;;;-4.77;100.00;100290.75;4999291;28;20030;-77
2022/12/14 10:04:27;;;;;;;22.33;11.52;;;;;;;-4.64;100.00;100307.19;5010689;28;20022;-77
2022/12/14 10:06:55;;;;;;;18.58;11.38;;;;;;;-4.59;100.00;100298.03;5005791;28;20045;-76
2022/12/14 10:09:34;;;;;;;19.33;10.65;;;;;;;-4.72;100.00;100272.22;5010296;28;20049;-78
2022/12/14 10:12:36;;;;;;;22.10;11.15;;;;;;;-4.57;100.00;100281.16;5011216;28;20026;-77
2022/12/14 10:15:07;;;;;;;18.00;10.95;;;;;;;-4.47;100.00;100295.84;4985441;28;20069;-76
2022/12/14 10:17:54;;;;;;;22.73;11.75;;;;;;;-4.41;100.00;100292.63;5008445;28;20068;-78
2022/12/14 10:20:47;;;;;;;18.85;11.43;;;;;;;-4.37;100.00;100282.56;5004216;28;20132;-79
2022/12/14 10:23:20;;;;;;;25.10;11.93;;;;;;;-4.38;100.00;100268.13;5009160;28;20117;-77
2022/12/14 10:25:51;;;;;;;;;;;;;;;-4.33;100.00;100275.88;5005481;28;20514;-78
2022/12/14 10:28:23;;;;;;;18.45;10.82;;;;;;;-4.31;100.00;100276.78;5008811;28;19918;-78
2022/12/14 10:30:56;;;;;;;19.25;10.40;;;;;;;-4.26;100.00;100293.03;5011279;28;20030;-77
2022/12/14 10:33:29;;;;;;;20.27;10.80;;;;;;;-4.31;100.00;100276.78;5012265;28;20026;-78
2022/12/14 10:36:04;;;;;;;21.25;10.52;;;;;;;-4.19;100.00;100300.00;5002127;28;20116;-77
2022/12/14 10:38:46;;;;;;;30.00;10.40;;;;;;;-4.14;100.00;100290.81;5002849;28;20037;-78
2022/12/14 10:41:24;;;;;;;17.15;9.75;;;;;;;-4.11;100.00;100283.28;5012294;28;20037;-78
2022/12/14 10:44:17;;;;;;;17.60;9.70;;;;;;;-4.09;100.00;100290.94;5006622;28;20022;-78
2022/12/14 10:47:04;;;;;;;17.33;10.25;;;;;;;-4.10;100.00;100284.97;5015650;28;20042;-78
2022/12/14 10:49:45;;;;;;;19.45;10.32;;;;;;;-4.04;100.00;100287.69;5003862;28;20029;-78
2022/12/14 10:52:18;;;;;;;21.02;10.48;;;;;;;-3.97;100.00;100300.59;5013689;28;20359;-78
2022/12/14 10:54:48;;;;;;;17.42;9.75;;;;;;;-3.99;100.00;100295.44;5015417;28;20045;-78
2022/12/14 10:57:19;;;;;;;19.13;10.65;;;;;;;-3.97;100.00;100291.25;5014623;28;20956;-78
2022/12/14 10:59:45;;;;;;;21.13;10.82;;;;;;;-4.00;100.00;100286.94;5014310;28;20026;-78
2022/12/14 11:02:37;;;;;;;18.30;9.85;;;;;;;-3.91;100.00;100295.66;5014762;28;20049;-78
2022/12/14 11:05:17;;;;;;;19.35;10.38;;;;;;;-3.91;99.75;100285.47;5004128;28;20034;-79
2022/12/14 11:07:44;;;;;;;15.98;8.95;;;;;;;-3.96;99.66;100279.38;5012349;28;20034;-78
2022/12/14 11:10:15;;;;;;;25.65;10.50;;;;;;;-3.89;100.00;100294.00;5013745;28;20034;-79
2022/12/14 11:13:02;;;;;;;18.95;10.15;;;;;;;-3.89;100.00;100283.81;5009114;28;20354;-78
2022/12/14 11:15:39;;;;;;;17.15;9.98;;;;;;;-3.89;99.12;100276.19;5014974;28;20372;-79
2022/12/14 11:18:11;;;;;;;19.65;9.77;;;;;;;-3.70;98.80;100300.44;5014897;28;20101;-79
2022/12/14 11:20:47;;;;;;;21.35;10.60;;;;;;;-3.66;98.72;100298.03;5009089;28;20045;-79
2022/12/14 11:23:23;;;;;;;22.92;9.95;;;;;;;-3.63;98.67;100295.56;5007361;28;20045;-79
2022/12/14 11:25:53;;;;;;;20.60;9.98;;;;;;;-3.61;98.32;100290.47;5002494;28;20036;-78
2022/12/14 11:28:21;;;;;;;22.75;10.35;;;;;;;-3.59;98.44;100289.72;5008169;28;20049;-79
2022/12/14 11:31:00;;;;;;;30.73;10.30;;;;;;;-3.58;98.53;100286.31;5009757;28;20022;-78
2022/12/14 11:33:32;;;;;;;21.13;10.68;;;;;;;-3.58;97.45;100280.38;5009792;28;20173;-79
2022/12/14 11:35:57;;;;;;;16.50;9.18;;;;;;;-3.57;97.58;100282.09;5012365;28;20072;-79
2022/12/14 11:38:26;;;;;;;20.33;10.32;;;;;;;-3.47;98.14;100285.72;5009992;28;20420;-79